createdAt,value
2018-04-26T00:00:52.895Z,9.20
2018-04-26T00:03:21.677Z,9.80
2018-04-26T00:05:55.689Z,11.63
2018-04-26T00:08:22.737Z,9.83
2018-04-26T00:10:53.375Z,8.80
2018-04-26T00:13:22.322Z,13.40
2018-04-26T00:15:49.315Z,14.60
2018-04-26T00:18:15.557Z,9.70
2018-04-26T00:20:42.633Z,11.73
2018-04-26T00:23:09.009Z,11.97
2018-04-26T00:25:37.456Z,8.00
2018-04-26T00:28:03.701Z,12.40
2018-04-26T00:30:29.927Z,8.97
2018-04-26T00:32:56.154Z,10.27
2018-04-26T00:35:23.937Z,7.97
2018-04-26T00:37:50.223Z,13.47
2018-04-26T00:40:16.462Z,8.17
2018-04-26T00:42:43.262Z,12.80
2018-04-26T00:45:10.331Z,10.43
2018-04-26T00:47:37.356Z,14.67
2018-04-26T00:50:03.586Z,11.10
2018-04-26T00:52:29.836Z,11.20
2018-04-26T00:54:56.060Z,11.10
2018-04-26T00:57:23.307Z,9.77
2018-04-26T00:59:50.360Z,14.60
2018-04-26T01:02:16.652Z,9.70
2018-04-26T01:04:43.080Z,8.60
2018-04-26T01:07:09.348Z,11.43
2018-04-26T01:09:35.556Z,11.70
2018-04-26T01:12:01.959Z,17.97
2018-04-26T01:14:28.188Z,10.87
2018-04-26T01:16:54.433Z,10.63
2018-04-26T01:19:23.041Z,10.70
2018-04-26T01:21:50.129Z,9.80
2018-04-26T01:24:16.418Z,13.30
2018-04-26T01:26:42.734Z,12.83
2018-04-26T01:29:08.984Z,13.07
2018-04-26T01:31:35.296Z,12.53
2018-04-26T01:34:01.528Z,11.27
2018-04-26T01:36:40.217Z,10.90
2018-04-26T01:39:06.456Z,11.50
2018-04-26T01:41:32.711Z,14.30
2018-04-26T01:43:58.907Z,14.77
2018-04-26T01:46:25.214Z,14.40
2018-04-26T01:48:51.633Z,13.00
2018-04-26T01:51:17.884Z,13.97
2018-04-26T01:53:44.163Z,19.07
2018-04-26T01:56:10.460Z,13.27
2018-04-26T01:58:36.684Z,12.43
2018-04-26T02:01:02.948Z,14.17
2018-04-26T02:03:29.289Z,13.73
2018-04-26T02:05:56.437Z,12.00
2018-04-26T02:08:24.625Z,9.83
2018-04-26T02:10:52.140Z,19.37
2018-04-26T02:13:18.348Z,13.03
2018-04-26T02:15:44.612Z,11.73
2018-04-26T02:18:11.593Z,13.47
2018-04-26T02:20:38.590Z,12.90
2018-04-26T02:23:04.920Z,19.57
2018-04-26T02:25:31.412Z,13.50
2018-04-26T02:27:57.696Z,15.73
2018-04-26T02:30:23.968Z,14.57
2018-04-26T02:32:50.281Z,14.03
2018-04-26T02:35:16.534Z,17.93
2018-04-26T02:37:42.843Z,18.43
2018-04-26T02:40:10.352Z,14.57
2018-04-26T02:42:36.654Z,20.30
2018-04-26T02:45:03.919Z,13.70
2018-04-26T02:47:30.205Z,15.60
2018-04-26T02:49:56.472Z,13.43
2018-04-26T02:52:22.752Z,12.20
2018-04-26T02:54:49.765Z,16.43
2018-04-26T02:57:16.014Z,13.70
2018-04-26T02:59:42.266Z,14.13
2018-04-26T03:02:08.573Z,14.77
2018-04-26T03:04:35.578Z,18.20
2018-04-26T03:07:01.813Z,13.40
2018-04-26T03:09:28.044Z,11.27
2018-04-26T03:11:54.378Z,15.17
2018-04-26T03:14:20.609Z,15.87
2018-04-26T03:16:46.825Z,17.20
2018-04-26T03:19:13.157Z,17.00
2018-04-26T03:21:39.465Z,13.93
2018-04-26T03:24:05.833Z,14.13
2018-04-26T03:26:32.167Z,18.37
2018-04-26T03:28:58.417Z,13.80
2018-04-26T03:31:24.698Z,11.77
2018-04-26T03:33:50.947Z,15.83
2018-04-26T03:36:17.246Z,14.43
2018-04-26T03:38:43.717Z,18.00
2018-04-26T03:41:10.056Z,15.03
2018-04-26T03:43:37.076Z,17.23
2018-04-26T03:46:03.338Z,17.13
2018-04-26T03:48:29.538Z,15.03
2018-04-26T03:50:55.776Z,15.23
2018-04-26T03:53:23.491Z,16.33
2018-04-26T03:55:49.825Z,15.50
2018-04-26T03:58:16.185Z,16.90
2018-04-26T04:00:56.515Z,15.50
2018-04-26T04:03:34.967Z,17.97
2018-04-26T04:06:13.227Z,16.93
2018-04-26T04:08:39.479Z,14.23
2018-04-26T04:11:05.739Z,15.63
2018-04-26T04:13:32.065Z,16.63
2018-04-26T04:15:58.298Z,16.27
2018-04-26T04:18:25.346Z,14.07
2018-04-26T04:20:51.632Z,17.23
2018-04-26T04:23:17.937Z,16.97
2018-04-26T04:25:44.205Z,17.80
2018-04-26T04:28:10.414Z,16.87
2018-04-26T04:30:36.674Z,15.07
2018-04-26T04:33:03.861Z,11.77
2018-04-26T04:35:31.102Z,17.30
2018-04-26T04:37:57.603Z,18.70
2018-04-26T04:40:23.944Z,17.50
2018-04-26T04:42:50.264Z,18.13
2018-04-26T04:45:16.762Z,15.13
2018-04-26T04:47:43.024Z,21.67
2018-04-26T04:50:09.331Z,15.30
2018-04-26T04:52:35.740Z,12.33
2018-04-26T04:55:02.032Z,18.70
2018-04-26T04:57:28.391Z,16.13
2018-04-26T04:59:54.813Z,13.30
2018-04-26T05:02:21.867Z,12.23
2018-04-26T05:04:48.148Z,13.07
2018-04-26T05:07:14.419Z,15.50
2018-04-26T05:09:40.687Z,12.27
2018-04-26T05:12:06.982Z,13.37
2018-04-26T05:14:34.435Z,18.53
2018-04-26T05:17:00.821Z,13.67
2018-04-26T05:19:27.202Z,14.97
2018-04-26T05:21:53.420Z,14.10
2018-04-26T05:24:20.484Z,13.10
2018-04-26T05:26:47.476Z,15.20
2018-04-26T05:29:13.731Z,10.83
2018-04-26T05:31:39.996Z,12.10
2018-04-26T05:34:06.257Z,15.47
2018-04-26T05:36:32.551Z,14.23
2018-04-26T05:38:58.895Z,15.33
2018-04-26T05:41:25.154Z,13.63
2018-04-26T05:43:51.401Z,8.93
2018-04-26T05:46:17.679Z,12.03
2018-04-26T05:48:43.917Z,12.53
2018-04-26T05:51:10.169Z,14.67
2018-04-26T05:53:37.670Z,16.77
2018-04-26T05:56:04.221Z,13.20
2018-04-26T05:58:31.451Z,17.77
2018-04-26T06:00:58.464Z,15.70
2018-04-26T06:03:24.785Z,18.07
2018-04-26T06:05:51.701Z,17.50
2018-04-26T06:08:17.943Z,9.87
2018-04-26T06:10:45.763Z,5.70
2018-04-26T06:13:11.992Z,6.77
2018-04-26T06:15:38.448Z,4.13
2018-04-26T06:18:04.825Z,3.70
2018-04-26T06:20:31.840Z,4.67
2018-04-26T06:22:58.130Z,5.10
2018-04-26T06:25:25.076Z,3.80
2018-04-26T06:27:51.335Z,5.73
2018-04-26T06:30:17.579Z,6.17
2018-04-26T06:32:43.916Z,8.60
2018-04-26T06:35:10.261Z,6.37
2018-04-26T06:37:36.721Z,7.27
2018-04-26T06:40:03.773Z,10.80
2018-04-26T06:42:30.028Z,9.67
2018-04-26T06:44:56.297Z,10.23
2018-04-26T06:47:22.604Z,15.10
2018-04-26T06:49:48.913Z,9.80
2018-04-26T06:52:15.943Z,12.00
2018-04-26T06:54:42.291Z,6.93
2018-04-26T06:57:08.697Z,7.77
2018-04-26T06:59:35.700Z,10.53
2018-04-26T07:02:01.934Z,11.17
2018-04-26T07:04:28.199Z,13.80
2018-04-26T07:06:54.460Z,8.97
2018-04-26T07:09:20.759Z,11.63
2018-04-26T07:11:47.943Z,15.73
2018-04-26T07:14:14.342Z,19.53
2018-04-26T07:16:41.425Z,13.30
2018-04-26T07:19:07.690Z,9.73
2018-04-26T07:21:33.939Z,11.40
2018-04-26T07:24:00.276Z,15.50
2018-04-26T07:26:27.288Z,18.73
2018-04-26T07:28:53.603Z,16.10
2018-04-26T07:31:20.145Z,13.37
2018-04-26T07:33:46.491Z,11.37
2018-04-26T07:36:12.711Z,13.90
2018-04-26T07:38:38.945Z,12.87
2018-04-26T07:41:05.313Z,16.00
2018-04-26T07:43:32.274Z,14.80
2018-04-26T07:45:59.303Z,12.70
2018-04-26T07:48:26.420Z,13.37
2018-04-26T07:50:53.346Z,14.93
2018-04-26T07:53:19.751Z,12.73
2018-04-26T07:55:47.265Z,14.97
2018-04-26T07:58:13.504Z,12.53
2018-04-26T08:00:39.724Z,16.30
2018-04-26T08:03:06.716Z,13.90
2018-04-26T08:05:32.952Z,11.60
2018-04-26T08:07:59.283Z,11.07
2018-04-26T08:10:25.679Z,13.87
2018-04-26T08:12:52.003Z,10.87
2018-04-26T08:15:18.289Z,11.07
2018-04-26T08:17:44.595Z,11.23
2018-04-26T08:20:10.827Z,11.10
2018-04-26T08:22:37.058Z,10.27
2018-04-26T08:25:03.454Z,14.47
2018-04-26T08:27:29.855Z,11.33
2018-04-26T08:29:56.280Z,11.70
2018-04-26T08:32:22.588Z,11.37
2018-04-26T08:34:48.802Z,10.53
2018-04-26T08:37:15.063Z,12.47
2018-04-26T08:39:41.308Z,9.80
2018-04-26T08:42:08.337Z,16.10
2018-04-26T08:44:34.933Z,13.67
2018-04-26T08:47:02.052Z,11.43
2018-04-26T08:49:29.532Z,16.50
2018-04-26T08:51:55.892Z,8.13
2018-04-26T08:54:22.158Z,9.13
2018-04-26T08:56:49.161Z,7.87
2018-04-26T08:59:15.397Z,8.87
2018-04-26T09:01:41.747Z,9.07
2018-04-26T09:04:08.760Z,11.27
2018-04-26T09:06:35.085Z,7.53
2018-04-26T09:09:01.562Z,7.53
2018-04-26T09:11:28.536Z,7.47
2018-04-26T09:13:55.535Z,8.03
2018-04-26T09:16:21.739Z,8.27
2018-04-26T09:18:47.981Z,9.13
2018-04-26T09:21:15.193Z,9.07
2018-04-26T09:23:41.421Z,9.00
2018-04-26T09:26:07.806Z,7.50
2018-04-26T09:28:34.855Z,9.57
2018-04-26T09:31:02.309Z,9.70
2018-04-26T09:33:28.541Z,10.00
2018-04-26T09:35:54.853Z,7.80
2018-04-26T09:38:21.850Z,6.67
2018-04-26T09:40:48.825Z,12.80
2018-04-26T09:43:15.116Z,9.00
2018-04-26T09:45:42.840Z,9.97
2018-04-26T09:48:09.148Z,10.47
2018-04-26T09:50:36.232Z,13.43
2018-04-26T09:53:03.267Z,10.27
2018-04-26T09:55:29.644Z,5.93
2018-04-26T09:57:55.864Z,12.23
2018-04-26T10:00:27.093Z,12.73
2018-04-26T10:02:53.575Z,7.87
2018-04-26T10:05:19.845Z,11.10
2018-04-26T10:07:47.363Z,9.43
2018-04-26T10:10:13.718Z,8.90
2018-04-26T10:12:41.497Z,9.50
2018-04-26T10:15:07.791Z,9.07
2018-04-26T10:17:34.212Z,11.97
2018-04-26T10:20:00.457Z,10.77
2018-04-26T10:22:26.680Z,10.10
2018-04-26T10:24:53.005Z,7.93
2018-04-26T10:27:19.279Z,8.83
2018-04-26T10:29:45.624Z,10.63
2018-04-26T10:32:11.980Z,10.20
2018-04-26T10:34:38.231Z,11.13
2018-04-26T10:37:04.448Z,11.97
2018-04-26T10:39:30.660Z,11.27
2018-04-26T10:41:56.903Z,7.87
2018-04-26T10:44:24.948Z,10.73
2018-04-26T10:46:51.381Z,11.00
2018-04-26T10:49:18.432Z,10.20
2018-04-26T10:51:44.720Z,7.47
2018-04-26T10:54:10.970Z,14.60
2018-04-26T10:56:37.224Z,12.27
2018-04-26T10:59:03.448Z,12.43
2018-04-26T11:01:29.690Z,13.00
2018-04-26T11:03:56.000Z,14.83
2018-04-26T11:06:22.298Z,12.87
2018-04-26T11:08:48.549Z,15.23
2018-04-26T11:11:15.520Z,16.13
2018-04-26T11:13:41.737Z,11.57
2018-04-26T11:16:08.055Z,9.83
2018-04-26T11:18:35.072Z,9.63
2018-04-26T11:21:01.284Z,8.10
2018-04-26T11:23:27.520Z,12.93
2018-04-26T11:25:53.922Z,8.97
2018-04-26T11:28:20.229Z,12.73
2018-04-26T11:30:47.201Z,8.40
2018-04-26T11:33:13.411Z,10.50
2018-04-26T11:35:39.629Z,8.87
2018-04-26T11:38:06.585Z,10.13
2018-04-26T11:40:32.898Z,9.43
2018-04-26T11:42:59.217Z,11.73
2018-04-26T11:45:26.305Z,8.27
2018-04-26T11:47:52.614Z,7.97
2018-04-26T11:50:18.836Z,8.20
2018-04-26T11:52:45.086Z,6.70
2018-04-26T11:55:11.348Z,5.87
2018-04-26T11:57:37.601Z,6.67
2018-04-26T12:00:03.953Z,14.20
2018-04-26T12:02:31.089Z,11.57
2018-04-26T12:04:58.393Z,8.60
2018-04-26T12:07:24.725Z,8.43
2018-04-26T12:09:50.988Z,9.97
2018-04-26T12:12:17.204Z,8.73
2018-04-26T12:14:43.478Z,10.67
2018-04-26T12:17:09.849Z,11.50
2018-04-26T12:19:36.663Z,8.57
2018-04-26T12:22:03.777Z,6.17
2018-04-26T12:24:30.177Z,7.17
2018-04-26T12:26:56.404Z,8.37
2018-04-26T12:29:22.618Z,9.30
2018-04-26T12:31:49.641Z,8.80
2018-04-26T12:34:15.958Z,8.40
2018-04-26T12:36:42.188Z,7.10
2018-04-26T12:39:08.869Z,9.57
2018-04-26T12:41:35.913Z,7.97
2018-04-26T12:44:02.491Z,8.37
2018-04-26T12:46:29.488Z,13.33
2018-04-26T12:48:55.794Z,8.37
2018-04-26T12:51:22.069Z,10.67
2018-04-26T12:53:48.268Z,11.37
2018-04-26T12:56:14.547Z,11.87
2018-04-26T12:58:40.800Z,7.90
2018-04-26T13:01:07.069Z,9.80
2018-04-26T13:03:33.350Z,11.80
2018-04-26T13:05:59.659Z,8.40
2018-04-26T13:08:25.969Z,9.37
2018-04-26T13:10:52.188Z,9.10
2018-04-26T13:13:18.501Z,7.10
2018-04-26T13:15:44.773Z,7.47
2018-04-26T13:18:10.996Z,12.53
2018-04-26T13:20:37.251Z,8.13
2018-04-26T13:23:03.499Z,9.30
2018-04-26T13:25:29.785Z,9.53
2018-04-26T13:27:56.006Z,7.73
2018-04-26T13:30:22.241Z,8.40
2018-04-26T13:32:48.577Z,8.63
2018-04-26T13:35:15.524Z,8.33
2018-04-26T13:37:42.546Z,5.73
2018-04-26T13:40:08.803Z,6.87
2018-04-26T13:42:37.019Z,6.90
2018-04-26T13:45:03.293Z,5.43
2018-04-26T13:47:30.273Z,5.53
2018-04-26T13:49:56.529Z,6.50
2018-04-26T13:52:22.782Z,3.73
2018-04-26T13:54:49.021Z,6.07
2018-04-26T13:57:15.329Z,3.27
2018-04-26T13:59:41.591Z,5.20
2018-04-26T14:02:07.920Z,3.53
2018-04-26T14:04:34.964Z,4.80
2018-04-26T14:07:01.982Z,3.50
2018-04-26T14:09:28.314Z,1.83
2018-04-26T14:11:55.336Z,6.30
2018-04-26T14:14:21.594Z,2.77
2018-04-26T14:16:49.954Z,5.43
2018-04-26T14:19:16.418Z,4.80
2018-04-26T14:21:43.476Z,9.23
2018-04-26T14:24:10.522Z,9.13
2018-04-26T14:26:37.500Z,9.90
2018-04-26T14:29:03.809Z,7.57
2018-04-26T14:31:30.945Z,9.87
2018-04-26T14:33:58.390Z,7.43
2018-04-26T14:36:25.386Z,8.33
2018-04-26T14:38:51.699Z,7.87
2018-04-26T14:41:18.119Z,6.57
2018-04-26T14:43:44.416Z,9.80
2018-04-26T14:46:12.243Z,6.70
2018-04-26T14:48:38.467Z,5.80
2018-04-26T14:51:04.730Z,7.57
2018-04-26T14:53:30.955Z,5.20
2018-04-26T14:55:57.180Z,7.27
2018-04-26T14:58:23.427Z,7.47
2018-04-26T15:00:49.735Z,7.93
2018-04-26T15:03:16.173Z,7.80
2018-04-26T15:05:42.413Z,9.47
2018-04-26T15:08:08.665Z,10.17
2018-04-26T15:10:35.674Z,7.17
2018-04-26T15:13:01.873Z,6.00
2018-04-26T15:15:28.194Z,7.53
2018-04-26T15:17:55.875Z,4.83
2018-04-26T15:20:22.152Z,6.80
2018-04-26T15:22:54.505Z,8.03
2018-04-26T15:25:20.852Z,9.23
2018-04-26T15:27:47.095Z,6.57
2018-04-26T15:30:13.384Z,7.13
2018-04-26T15:32:39.596Z,4.63
2018-04-26T15:35:05.871Z,4.63
2018-04-26T15:37:32.131Z,6.23
2018-04-26T15:39:58.482Z,3.37
2018-04-26T15:42:24.765Z,4.20
2018-04-26T15:44:51.720Z,6.10
2018-04-26T15:47:18.650Z,3.97
2018-04-26T15:49:45.647Z,8.60
2018-04-26T15:52:11.905Z,5.20
2018-04-26T15:54:50.528Z,4.80
2018-04-26T15:57:33.056Z,7.73
2018-04-26T16:00:11.481Z,2.60
2018-04-26T16:02:57.085Z,3.63
2018-04-26T16:05:35.693Z,5.77
2018-04-26T16:08:20.293Z,4.83
2018-04-26T16:11:04.941Z,4.27
2018-04-26T16:13:50.378Z,7.27
2018-04-26T16:16:35.920Z,6.50
2018-04-26T16:19:27.459Z,5.07
2018-04-26T16:22:13.171Z,5.50
2018-04-26T16:24:52.780Z,5.30
2018-04-26T16:27:37.603Z,4.70
2018-04-26T16:30:17.334Z,4.33
2018-04-26T16:33:01.977Z,5.67
2018-04-26T16:35:40.641Z,3.00
2018-04-26T16:38:20.492Z,3.90
2018-04-26T16:40:46.717Z,6.87
2018-04-26T16:43:14.021Z,5.30
2018-04-26T16:45:41.050Z,3.97
2018-04-26T16:48:08.019Z,5.70
2018-04-26T16:50:34.276Z,7.47
2018-04-26T16:53:00.507Z,4.70
2018-04-26T16:55:26.756Z,9.73
2018-04-26T16:57:53.008Z,6.10
2018-04-26T17:00:19.967Z,9.90
2018-04-26T17:02:46.218Z,2.53
2018-04-26T17:05:12.462Z,4.03
2018-04-26T17:07:38.813Z,2.50
2018-04-26T17:10:05.097Z,4.33
2018-04-26T17:12:31.309Z,2.60
2018-04-26T17:14:57.509Z,4.83
2018-04-26T17:17:23.757Z,4.13
2018-04-26T17:19:50.725Z,3.40
2018-04-26T17:22:17.112Z,5.87
2018-04-26T17:24:43.554Z,3.77
2018-04-26T17:27:10.533Z,5.37
2018-04-26T17:29:36.833Z,4.80
2018-04-26T17:32:03.917Z,3.73
2018-04-26T17:34:30.241Z,4.47
2018-04-26T17:36:57.490Z,5.27
2018-04-26T17:39:24.511Z,5.67
2018-04-26T17:41:51.501Z,5.57
2018-04-26T17:44:17.890Z,7.13
2018-04-26T17:46:44.181Z,9.87
2018-04-26T17:49:11.201Z,6.67
2018-04-26T17:51:37.397Z,5.30
2018-04-26T17:54:04.372Z,3.67
2018-04-26T17:56:30.611Z,4.20
2018-04-26T17:58:56.840Z,3.33
2018-04-26T18:01:23.068Z,5.17
2018-04-26T18:03:49.328Z,5.87
2018-04-26T18:06:16.370Z,4.63
2018-04-26T18:08:42.732Z,6.67
2018-04-26T18:11:09.032Z,4.93
2018-04-26T18:13:35.304Z,5.90
2018-04-26T18:16:01.532Z,5.50
2018-04-26T18:18:27.965Z,4.73
2018-04-26T18:20:54.230Z,6.70
2018-04-26T18:23:20.525Z,6.83
2018-04-26T18:25:46.806Z,6.70
2018-04-26T18:28:13.129Z,4.70
2018-04-26T18:30:40.153Z,7.97
2018-04-26T18:33:07.540Z,9.87
2018-04-26T18:35:35.076Z,5.03
2018-04-26T18:38:02.107Z,5.50
2018-04-26T18:40:28.315Z,5.77
2018-04-26T18:42:54.568Z,5.03
2018-04-26T18:45:20.906Z,6.23
2018-04-26T18:47:47.192Z,9.30
2018-04-26T18:50:13.589Z,8.00
2018-04-26T18:52:39.820Z,9.37
2018-04-26T18:55:06.060Z,5.07
2018-04-26T18:57:32.303Z,10.50
2018-04-26T18:59:59.260Z,5.77
2018-04-26T19:02:25.508Z,8.90
2018-04-26T19:04:51.917Z,7.87
2018-04-26T19:07:18.206Z,10.93
2018-04-26T19:09:45.165Z,8.90
2018-04-26T19:12:12.200Z,8.33
2018-04-26T19:14:39.190Z,11.20
2018-04-26T19:17:05.413Z,8.03
2018-04-26T19:19:31.690Z,10.43
2018-04-26T19:21:58.027Z,8.90
2018-04-26T19:24:24.325Z,10.67
2018-04-26T19:26:50.556Z,8.33
2018-04-26T19:29:16.772Z,7.43
2018-04-26T19:31:42.951Z,12.00
2018-04-26T19:34:09.177Z,7.07
2018-04-26T19:36:35.393Z,9.37
2018-04-26T19:39:01.734Z,10.17
2018-04-26T19:41:28.741Z,9.17
2018-04-26T19:43:55.034Z,14.00
2018-04-26T19:46:21.276Z,7.50
2018-04-26T19:48:48.019Z,10.50
2018-04-26T19:51:14.305Z,10.43
2018-04-26T19:53:41.281Z,6.93
2018-04-26T19:56:07.512Z,9.87
2018-04-26T19:58:34.526Z,9.07
2018-04-26T20:01:00.860Z,10.53
2018-04-26T20:03:27.231Z,8.43
2018-04-26T20:05:53.489Z,9.73
2018-04-26T20:08:20.366Z,9.27
2018-04-26T20:10:47.390Z,8.47
2018-04-26T20:13:13.621Z,7.77
2018-04-26T20:15:39.849Z,13.23
2018-04-26T20:18:07.594Z,10.13
2018-04-26T20:20:34.004Z,9.33
2018-04-26T20:23:00.292Z,8.33
2018-04-26T20:25:26.767Z,14.70
2018-04-26T20:27:52.998Z,15.60
2018-04-26T20:30:19.284Z,11.43
2018-04-26T20:32:45.583Z,8.50
2018-04-26T20:35:11.967Z,8.93
2018-04-26T20:37:38.178Z,10.67
2018-04-26T20:40:04.407Z,10.80
2018-04-26T20:42:30.669Z,10.50
2018-04-26T20:44:56.882Z,12.47
2018-04-26T20:47:23.145Z,10.27
2018-04-26T20:49:50.613Z,9.13
2018-04-26T20:52:16.861Z,10.03
2018-04-26T20:54:43.133Z,8.47
2018-04-26T20:57:09.396Z,8.67
2018-04-26T20:59:36.371Z,7.97
2018-04-26T21:02:03.364Z,8.00
2018-04-26T21:04:29.599Z,8.67
2018-04-26T21:06:55.937Z,10.87
2018-04-26T21:09:22.272Z,9.73
2018-04-26T21:11:49.608Z,7.20
2018-04-26T21:14:16.910Z,10.53
2018-04-26T21:16:43.829Z,10.20
2018-04-26T21:19:10.051Z,10.00
2018-04-26T21:21:36.278Z,12.07
2018-04-26T21:24:02.593Z,14.57
2018-04-26T21:26:28.936Z,8.70
2018-04-26T21:28:55.192Z,11.27
2018-04-26T21:31:22.193Z,11.23
2018-04-26T21:33:48.478Z,11.37
2018-04-26T21:36:15.466Z,9.37
2018-04-26T21:38:42.170Z,9.93
2018-04-26T21:41:08.615Z,12.93
2018-04-26T21:43:34.854Z,12.90
2018-04-26T21:46:01.087Z,8.23
2018-04-26T21:48:27.367Z,8.87
2018-04-26T21:50:59.900Z,9.23
2018-04-26T21:53:32.901Z,9.87
2018-04-26T21:56:05.365Z,10.97
2018-04-26T21:58:37.637Z,9.57
2018-04-26T22:01:10.892Z,12.97
2018-04-26T22:06:40.980Z,12.90
2018-04-26T22:09:07.960Z,9.20
2018-04-26T22:11:35.052Z,10.40
2018-04-26T22:14:01.328Z,8.83
2018-04-26T22:16:27.617Z,11.83
2018-04-26T22:18:53.874Z,11.57
2018-04-26T22:21:20.089Z,15.60
2018-04-26T22:23:47.044Z,9.10
2018-04-26T22:26:13.245Z,11.40
2018-04-26T22:28:39.483Z,13.60
2018-04-26T22:31:05.746Z,11.13
2018-04-26T22:33:32.745Z,8.30
2018-04-26T22:35:58.960Z,10.50
2018-04-26T22:38:25.184Z,11.27
2018-04-26T22:40:51.373Z,11.77
2018-04-26T22:43:17.620Z,11.03
2018-04-26T22:45:43.875Z,9.07
2018-04-26T22:48:10.142Z,8.27
2018-04-26T22:50:36.404Z,11.80
2018-04-26T22:53:02.611Z,11.60
2018-04-26T22:55:29.552Z,9.90
2018-04-26T22:57:55.777Z,13.50
2018-04-26T23:00:22.003Z,9.97
2018-04-26T23:02:48.288Z,12.20
2018-04-26T23:05:14.580Z,11.57
2018-04-26T23:07:41.560Z,14.87
2018-04-26T23:10:07.804Z,13.03
2018-04-26T23:12:34.021Z,12.43
2018-04-26T23:15:00.243Z,12.50
2018-04-26T23:17:26.454Z,11.50
2018-04-26T23:19:52.653Z,14.67
2018-04-26T23:22:19.636Z,12.97
2018-04-26T23:24:45.828Z,12.80
2018-04-26T23:27:12.103Z,17.00
2018-04-26T23:29:38.304Z,12.20
2018-04-26T23:32:04.511Z,8.40
2018-04-26T23:34:31.476Z,13.23
2018-04-26T23:36:57.701Z,13.50
2018-04-26T23:39:23.949Z,14.87
2018-04-26T23:41:50.164Z,12.60
2018-04-26T23:44:16.462Z,12.47
2018-04-26T23:46:43.429Z,12.63
2018-04-26T23:49:09.737Z,16.27
2018-04-26T23:51:36.701Z,11.30
2018-04-26T23:54:03.039Z,10.77
2018-04-26T23:56:29.261Z,16.87
2018-04-26T23:58:55.510Z,13.27
